Time;durP1;ratioP1;P1;durP2;ratioP2;P2;SDS_P1;SDS_P2;PMS_P1;PMS_P2;Temp;Humidity;BMP_temperature;BMP_pressure;BME280_temperature;BME280_humidity;BME280_pressure;Samples;Min_cycle;Max_cycle;Signal;HPM_P1;HPM_P2
2021/04/16 00:00:53;;;;;;;8.43;3.42;;;21.50;42.70;;;;;;5077339;28;20382;-65
2021/04/16 00:03:21;;;;;;;6.55;2.80;;;21.70;42.80;;;;;;5072038;28;20103;-66
2021/04/16 00:05:48;;;;;;;8.45;3.55;;;21.80;40.90;;;;;;5074387;28;20033;-64
2021/04/16 00:08:24;;;;;;;7.57;3.10;;;21.80;42.00;;;;;;5072421;28;20463;-63
2021/04/16 00:11:13;;;;;;;6.38;2.63;;;21.90;41.00;;;;;;5054694;28;20024;-64
2021/04/16 00:13:40;;;;;;;6.55;2.72;;;22.00;41.50;;;;;;5069483;28;20064;-65
2021/04/16 00:16:12;;;;;;;4.47;2.63;;;22.10;41.00;;;;;;5071713;28;20032;-65
2021/04/16 00:18:40;;;;;;;5.67;3.17;;;22.20;41.00;;;;;;5076737;28;20527;-63
2021/04/16 00:21:08;;;;;;;5.15;2.60;;;22.30;40.20;;;;;;5074673;28;20067;-63
2021/04/16 00:23:35;;;;;;;7.82;2.88;;;22.20;41.00;;;;;;5047644;28;20029;-68
2021/04/16 00:26:04;;;;;;;5.40;2.67;;;22.10;40.90;;;;;;5068727;28;20505;-68
2021/04/16 00:28:31;;;;;;;4.70;2.58;;;22.40;41.50;;;;;;5074494;28;20294;-64
2021/04/16 00:31:06;;;;;;;4.65;2.67;;;22.30;40.40;;;;;;5073174;28;20439;-63
2021/04/16 00:33:34;;;;;;;3.90;2.47;;;22.30;40.60;;;;;;5072835;28;20111;-66
2021/04/16 00:36:01;;;;;;;6.10;2.60;;;22.40;42.10;;;;;;5073545;28;20855;-64
2021/04/16 00:38:29;;;;;;;5.30;2.83;;;22.60;41.30;;;;;;5075275;28;20016;-68
2021/04/16 00:40:59;;;;;;;4.55;2.40;;;22.80;40.80;;;;;;5080473;28;20028;-62
2021/04/16 00:43:29;;;;;;;5.40;2.67;;;23.00;40.20;;;;;;5076733;28;20698;-67
2021/04/16 00:46:11;;;;;;;5.50;2.75;;;23.10;40.30;;;;;;5078917;28;20072;-62
2021/04/16 00:48:55;;;;;;;8.50;2.50;;;23.20;38.60;;;;;;5074963;28;20036;-62
2021/04/16 00:51:28;;;;;;;4.82;2.60;;;23.30;39.90;;;;;;5077528;28;20064;-68
2021/04/16 00:53:58;;;;;;;7.15;2.80;;;23.40;39.30;;;;;;5071197;28;20348;-65
2021/04/16 00:56:26;;;;;;;7.43;2.40;;;23.40;39.80;;;;;;5070564;28;20017;-69
2021/04/16 00:58:53;;;;;;;3.83;2.40;;;23.50;39.40;;;;;;5075878;28;20481;-69
2021/04/16 01:01:22;;;;;;;6.28;2.10;;;23.50;39.10;;;;;;5074069;28;20487;-63
2021/04/16 01:03:50;;;;;;;4.63;2.20;;;23.40;39.90;;;;;;5076372;28;20034;-64
2021/04/16 01:06:19;;;;;;;5.00;2.15;;;23.70;39.20;;;;;;5076502;28;20024;-67
2021/04/16 01:08:47;;;;;;;4.80;3.05;;;23.90;36.80;;;;;;5072602;28;21299;-65
2021/04/16 01:11:14;;;;;;;8.57;5.10;;;23.90;37.70;;;;;;5073664;28;20479;-70
2021/04/16 01:13:42;;;;;;;4.85;2.03;;;23.90;38.40;;;;;;5070204;28;20844;-65
2021/04/16 01:16:14;;;;;;;4.45;2.33;;;24.20;38.00;;;;;;5066293;28;20024;-69
2021/04/16 01:18:45;;;;;;;4.40;1.70;;;24.40;37.60;;;;;;5069710;28;20040;-69
2021/04/16 01:21:16;;;;;;;3.93;1.57;;;24.50;34.60;;;;;;5048634;28;20046;-69
2021/04/16 01:24:04;;;;;;;5.25;1.58;;;24.50;35.00;;;;;;5071553;28;20465;-64
2021/04/16 01:26:39;;;;;;;3.95;1.48;;;24.40;35.90;;;;;;5069273;28;20028;-65
2021/04/16 01:29:08;;;;;;;3.60;1.30;;;24.40;35.50;;;;;;5048791;28;20461;-62
2021/04/16 01:31:36;;;;;;;2.47;1.30;;;24.30;35.60;;;;;;5064677;28;20037;-64
2021/04/16 01:34:04;;;;;;;3.50;1.58;;;24.30;35.80;;;;;;5069367;28;20844;-70
2021/04/16 01:36:34;;;;;;;2.90;1.83;;;24.60;35.80;;;;;;5070503;28;20081;-65
2021/04/16 01:39:05;;;;;;;4.22;1.67;;;24.70;36.90;;;;;;5070945;28;20031;-66
2021/04/16 01:41:32;;;;;;;3.85;1.90;;;24.60;37.50;;;;;;5070138;28;20035;-64
2021/04/16 01:44:05;;;;;;;8.23;2.80;;;24.70;37.10;;;;;;5071434;28;20021;-68
2021/04/16 01:47:06;;;;;;;5.30;2.00;;;24.80;39.00;;;;;;5050831;28;20525;-66
2021/04/16 01:49:39;;;;;;;5.32;3.03;;;25.10;38.00;;;;;;5074258;28;20026;-64
2021/04/16 01:52:12;;;;;;;8.20;3.08;;;24.90;37.90;;;;;;5067983;28;20044;-64
2021/04/16 01:54:51;;;;;;;3.50;1.80;;;25.00;39.40;;;;;;5055227;28;20387;-64
2021/04/16 01:57:26;;;;;;;4.88;2.20;;;24.70;39.80;;;;;;5054306;28;20103;-68
2021/04/16 01:59:55;;;;;;;5.38;2.33;;;24.70;41.90;;;;;;5075031;28;20047;-65
2021/04/16 02:02:28;;;;;;;5.45;2.13;;;24.80;42.90;;;;;;5071472;28;20031;-65
2021/04/16 02:04:55;;;;;;;5.68;2.42;;;24.50;43.20;;;;;;5073781;28;20024;-64
2021/04/16 02:07:24;;;;;;;7.40;2.30;;;24.20;45.10;;;;;;5071051;28;20029;-66
2021/04/16 02:09:52;;;;;;;5.38;2.28;;;24.00;45.40;;;;;;5076314;28;20098;-69
2021/04/16 02:12:21;;;;;;;7.72;2.00;;;24.50;44.30;;;;;;5073816;28;20027;-69
2021/04/16 02:14:50;;;;;;;7.22;2.50;;;24.60;44.20;;;;;;5073159;28;20028;-69
2021/04/16 02:17:26;;;;;;;6.60;2.50;;;24.50;43.20;;;;;;5074569;28;20027;-66
2021/04/16 02:19:54;;;;;;;5.00;2.03;;;24.70;45.00;;;;;;5072123;28;20055;-65
2021/04/16 02:22:24;;;;;;;4.53;1.92;;;24.90;43.00;;;;;;5069118;28;20130;-68
2021/04/16 02:24:52;;;;;;;7.47;2.22;;;25.20;42.80;;;;;;5072167;28;20062;-64
2021/04/16 02:27:23;;;;;;;6.80;2.58;;;25.40;42.10;;;;;;5071926;28;20032;-68
2021/04/16 02:29:51;;;;;;;9.25;2.85;;;25.10;43.70;;;;;;5074079;28;20140;-65
2021/04/16 02:32:19;;;;;;;7.75;2.92;;;24.50;46.70;;;;;;5074885;28;20545;-64
2021/04/16 02:34:46;;;;;;;8.13;2.30;;;23.80;49.20;;;;;;5072255;28;20439;-68
2021/04/16 02:37:18;;;;;;;8.98;2.75;;;23.50;49.50;;;;;;5068017;28;20022;-69
2021/04/16 02:39:45;;;;;;;9.40;2.23;;;23.20;49.90;;;;;;5074045;28;20103;-65
2021/04/16 02:42:13;;;;;;;11.13;2.60;;;22.80;51.40;;;;;;5074616;28;20053;-68
2021/04/16 02:44:42;;;;;;;8.43;2.60;;;22.90;50.80;;;;;;5066165;28;20024;-68
2021/04/16 02:47:11;;;;;;;12.32;3.17;;;23.10;50.70;;;;;;5030299;22;20050;-69
2021/04/16 02:49:38;;;;;;;10.90;2.67;;;23.30;51.10;;;;;;4986024;28;20035;-64
2021/04/16 02:52:06;;;;;;;8.52;3.67;;;24.10;49.00;;;;;;4985900;28;20049;-68
2021/04/16 02:54:43;;;;;;;7.70;2.74;;;23.90;49.80;;;;;;4959071;28;10001325;-65
2021/04/16 02:57:10;;;;;;;10.32;2.88;;;23.50;51.30;;;;;;4978880;28;20219;-64
2021/04/16 02:59:38;;;;;;;8.07;2.40;;;23.30;51.10;;;;;;4982836;28;20026;-64
2021/04/16 03:02:06;;;;;;;12.55;3.03;;;23.30;51.90;;;;;;4982529;28;20030;-64
2021/04/16 03:04:33;;;;;;;6.85;2.38;;;22.70;52.50;;;;;;4982802;28;20034;-64
2021/04/16 03:07:01;;;;;;;8.90;2.90;;;22.90;53.20;;;;;;4986631;28;20026;-65
2021/04/16 03:09:28;;;;;;;9.43;2.60;;;23.40;53.00;;;;;;4968184;28;20026;-65
2021/04/16 03:11:55;;;;;;;11.55;2.95;;;24.10;52.00;;;;;;4975922;28;20074;-69
2021/04/16 03:14:23;;;;;;;9.10;2.60;;;24.20;51.50;;;;;;4985704;28;20034;-66
2021/04/16 03:16:51;;;;;;;12.07;2.95;;;24.20;50.30;;;;;;4982279;28;20343;-71
2021/04/16 03:19:18;;;;;;;10.52;2.88;;;23.50;52.10;;;;;;4985289;28;20022;-73
2021/04/16 03:21:46;;;;;;;11.73;2.55;;;22.80;53.80;;;;;;4984943;28;20038;-68
2021/04/16 03:24:13;;;;;;;8.00;2.90;;;22.70;54.60;;;;;;4982115;28;20038;-69
2021/04/16 03:26:40;;;;;;;13.10;3.20;;;22.80;53.70;;;;;;4984084;28;20038;-71
2021/04/16 03:29:08;;;;;;;8.90;2.80;;;22.70;54.50;;;;;;4984041;28;20585;-68
2021/04/16 03:31:35;;;;;;;10.30;2.65;;;22.80;54.50;;;;;;4972884;28;20027;-62
2021/04/16 03:34:03;;;;;;;13.18;2.65;;;22.80;54.70;;;;;;4986373;28;20022;-67
2021/04/16 03:36:31;;;;;;;9.80;2.85;;;22.50;54.90;;;;;;4985855;28;20034;-67
2021/04/16 03:38:59;;;;;;;10.27;3.55;;;22.10;56.50;;;;;;4985068;28;20030;-65
2021/04/16 03:41:26;;;;;;;10.10;2.67;;;22.10;55.50;;;;;;4982656;28;20030;-67
2021/04/16 03:43:54;;;;;;;8.00;2.92;;;22.50;55.70;;;;;;4982620;28;20421;-65
2021/04/16 03:46:21;;;;;;;12.10;2.40;;;23.10;54.10;;;;;;4979717;28;20056;-69
2021/04/16 03:48:49;;;;;;;6.85;2.22;;;23.60;51.90;;;;;;4983073;28;20467;-66
2021/04/16 03:51:16;;;;;;;10.00;3.08;;;23.30;53.00;;;;;;4977680;28;20093;-66
2021/04/16 03:53:44;;;;;;;12.30;3.50;;;23.10;52.20;;;;;;4986671;28;20037;-69
2021/04/16 03:56:13;;;;;;;8.80;2.90;;;23.00;53.30;;;;;;4987200;28;20022;-70
2021/04/16 03:58:42;;;;;;;8.48;2.85;;;23.10;53.00;;;;;;4985215;28;20030;-69
2021/04/16 04:01:10;;;;;;;8.20;2.38;;;23.10;53.40;;;;;;4989852;28;20140;-66
2021/04/16 04:03:38;;;;;;;7.63;2.13;;;22.80;53.80;;;;;;4984024;28;20034;-68
2021/04/16 04:06:07;;;;;;;10.02;2.70;;;22.40;54.40;;;;;;4965035;28;20123;-71
2021/04/16 04:08:35;;;;;;;18.20;2.97;;;22.40;54.00;;;;;;4992227;28;20064;-67
2021/04/16 04:11:04;;;;;;;8.07;2.20;;;22.50;53.40;;;;;;4984462;28;20493;-71
2021/04/16 04:13:31;;;;;;;9.80;2.65;;;22.50;54.10;;;;;;4985256;28;20026;-67
2021/04/16 04:15:59;;;;;;;9.32;2.63;;;22.70;54.10;;;;;;4987106;28;20058;-69
2021/04/16 04:18:26;;;;;;;8.32;2.80;;;22.90;52.90;;;;;;4985509;28;20033;-72
2021/04/16 04:20:54;;;;;;;12.10;2.72;;;22.90;53.70;;;;;;4984860;28;20441;-68
2021/04/16 04:23:21;;;;;;;9.23;3.13;;;23.00;53.50;;;;;;4983864;28;20022;-70
2021/04/16 04:25:51;;;;;;;8.45;2.63;;;23.10;53.60;;;;;;4980474;28;20038;-65
2021/04/16 04:28:19;;;;;;;8.38;2.55;;;22.80;53.80;;;;;;4983164;28;20419;-63
2021/04/16 04:30:46;;;;;;;12.38;3.45;;;22.30;55.20;;;;;;4983450;28;20378;-67
2021/04/16 04:33:14;;;;;;;13.07;3.10;;;22.10;55.90;;;;;;4986309;28;20497;-70
2021/04/16 04:35:41;;;;;;;8.57;2.78;;;21.90;55.80;;;;;;4984006;28;20469;-63
2021/04/16 04:38:09;;;;;;;9.10;2.40;;;21.70;57.20;;;;;;4984652;28;20538;-68
2021/04/16 04:40:37;;;;;;;11.75;2.78;;;21.90;57.20;;;;;;4979538;28;20030;-71
2021/04/16 04:43:05;;;;;;;8.02;2.42;;;22.30;56.10;;;;;;4983911;28;20488;-68
2021/04/16 04:45:33;;;;;;;10.98;2.88;;;22.30;55.00;;;;;;4977908;28;20030;-73
2021/04/16 04:48:00;;;;;;;10.98;2.95;;;22.10;55.60;;;;;;4977803;28;20556;-69
2021/04/16 04:50:28;;;;;;;7.85;2.65;;;22.00;55.80;;;;;;4982866;28;20069;-69
2021/04/16 04:52:57;;;;;;;12.50;2.65;;;21.80;57.40;;;;;;4990781;28;20030;-66
2021/04/16 04:55:32;;;;;;;10.98;3.35;;;21.70;56.40;;;;;;4985286;28;20508;-66
2021/04/16 04:58:00;;;;;;;11.18;2.90;;;21.40;57.40;;;;;;4983303;28;20022;-70
2021/04/16 05:00:29;;;;;;;9.05;2.20;;;21.30;57.80;;;;;;4982462;28;20030;-69
2021/04/16 05:02:56;;;;;;;7.53;2.88;;;21.40;58.70;;;;;;4982728;28;20049;-69
2021/04/16 05:05:24;;;;;;;9.68;3.00;;;21.50;57.50;;;;;;4987763;28;20030;-70
2021/04/16 05:07:51;;;;;;;10.95;2.60;;;21.30;57.00;;;;;;4989706;28;20042;-67
2021/04/16 05:10:20;;;;;;;11.93;2.33;;;21.50;57.10;;;;;;4984296;28;20137;-69
2021/04/16 05:12:48;;;;;;;13.05;3.15;;;21.60;56.50;;;;;;4983328;28;20092;-68
2021/04/16 05:15:18;;;;;;;12.75;3.35;;;21.60;56.90;;;;;;4965941;28;20034;-67
2021/04/16 05:17:46;;;;;;;9.52;3.30;;;21.40;56.00;;;;;;4983675;28;20552;-66
2021/04/16 05:20:13;;;;;;;7.72;2.30;;;21.30;57.10;;;;;;4983156;28;20038;-67
2021/04/16 05:22:41;;;;;;;12.98;2.92;;;21.20;56.50;;;;;;4983343;28;20107;-67
2021/04/16 05:25:09;;;;;;;12.23;3.28;;;21.20;57.30;;;;;;4983708;28;20496;-67
2021/04/16 05:27:36;;;;;;;10.23;2.47;;;21.10;56.40;;;;;;4984852;28;20023;-69
2021/04/16 05:30:05;;;;;;;9.15;2.72;;;20.70;57.50;;;;;;4983081;28;20235;-68
2021/04/16 05:32:32;;;;;;;9.48;2.35;;;20.60;57.80;;;;;;4981850;28;20029;-69
2021/04/16 05:34:59;;;;;;;7.03;2.50;;;20.60;57.50;;;;;;4986386;28;20054;-68
2021/04/16 05:37:27;;;;;;;11.85;4.35;;;20.70;57.80;;;;;;4984959;28;20054;-68
2021/04/16 05:39:54;;;;;;;11.30;3.05;;;20.80;57.80;;;;;;4984799;28;20037;-68
2021/04/16 05:42:22;;;;;;;12.88;4.43;;;20.90;58.00;;;;;;4983472;28;20117;-69
2021/04/16 05:44:50;;;;;;;11.18;2.78;;;20.90;58.40;;;;;;4989598;28;20108;-70
2021/04/16 05:47:17;;;;;;;9.50;3.05;;;21.00;58.00;;;;;;4991975;28;20041;-67
2021/04/16 05:49:45;;;;;;;7.68;2.47;;;21.00;57.20;;;;;;4984395;28;20110;-68
2021/04/16 05:52:12;;;;;;;7.90;2.72;;;21.00;57.60;;;;;;4982713;28;20059;-68
2021/04/16 05:54:40;;;;;;;8.90;2.47;;;21.10;56.90;;;;;;4978348;28;20086;-68
2021/04/16 05:57:07;;;;;;;8.95;3.10;;;20.80;57.60;;;;;;4988422;28;20085;-69
2021/04/16 05:59:35;;;;;;;11.80;2.67;;;20.70;57.50;;;;;;4985992;28;20447;-69
2021/04/16 06:02:03;;;;;;;12.00;2.22;;;20.50;58.40;;;;;;4981456;28;20405;-69
2021/04/16 06:04:31;;;;;;;11.10;2.67;;;20.60;58.10;;;;;;4965289;28;20145;-69
2021/04/16 06:06:59;;;;;;;10.57;2.30;;;20.70;57.90;;;;;;4980070;28;20374;-67
2021/04/16 06:09:26;;;;;;;10.60;4.15;;;20.70;57.80;;;;;;4984232;28;20064;-66
2021/04/16 06:11:53;;;;;;;9.70;3.10;;;20.70;57.70;;;;;;4983365;28;20027;-68
2021/04/16 06:14:20;;;;;;;9.65;2.85;;;20.60;58.20;;;;;;4985264;28;20049;-68
2021/04/16 06:16:48;;;;;;;8.85;2.67;;;20.60;57.40;;;;;;4983441;28;20052;-67
2021/04/16 06:19:15;;;;;;;7.55;2.53;;;20.40;58.40;;;;;;4983794;28;20049;-70
2021/04/16 06:21:42;;;;;;;11.57;2.80;;;20.20;58.60;;;;;;4983938;28;20109;-67
2021/04/16 06:24:09;;;;;;;10.43;2.38;;;19.90;59.70;;;;;;4983932;28;20034;-67
2021/04/16 06:26:37;;;;;;;8.23;2.33;;;19.80;60.80;;;;;;4980310;28;20030;-68
2021/04/16 06:29:06;;;;;;;11.32;2.60;;;19.70;59.90;;;;;;4982358;28;20037;-67
2021/04/16 06:31:33;;;;;;;11.60;2.40;;;19.50;60.60;;;;;;4985527;28;20470;-66
2021/04/16 06:34:01;;;;;;;9.30;2.03;;;19.40;60.90;;;;;;4983772;28;20080;-63
2021/04/16 06:36:28;;;;;;;7.88;1.92;;;19.40;60.90;;;;;;4971828;28;20018;-66
2021/04/16 06:38:55;;;;;;;11.30;2.65;;;19.40;61.20;;;;;;4982335;28;20484;-74
2021/04/16 06:41:31;;;;;;;7.75;1.90;;;19.30;60.90;;;;;;4980873;28;20256;-70
2021/04/16 06:44:04;;;;;;;13.07;2.92;;;19.20;61.30;;;;;;4977819;28;20496;-71
2021/04/16 06:46:41;;;;;;;11.70;2.53;;;19.10;61.20;;;;;;4979718;28;20096;-72
2021/04/16 06:49:17;;;;;;;7.60;2.25;;;19.00;61.30;;;;;;4982102;28;20022;-63
2021/04/16 06:52:16;;;;;;;9.40;2.50;;;19.00;62.30;;;;;;4982801;28;20038;-72
2021/04/16 06:54:44;;;;;;;11.02;2.47;;;19.00;61.90;;;;;;4975593;28;20027;-67
2021/04/16 06:57:43;;;;;;;11.73;3.53;;;19.00;62.70;;;;;;4984258;28;20432;-65
2021/04/16 07:00:35;;;;;;;6.75;2.33;;;18.90;62.30;;;;;;4970595;28;20908;-64
2021/04/16 07:03:05;;;;;;;13.35;2.25;;;18.80;63.10;;;;;;4986617;28;20066;-69
2021/04/16 07:05:38;;;;;;;8.88;2.40;;;18.80;62.90;;;;;;4979639;28;20053;-76
2021/04/16 07:08:07;;;;;;;9.57;2.53;;;18.70;63.70;;;;;;4983630;28;20599;-67
2021/04/16 07:10:39;;;;;;;11.48;2.17;;;18.60;63.70;;;;;;4983267;28;20058;-66
2021/04/16 07:13:06;;;;;;;;;;;18.60;63.40;;;;;;4978407;28;20022;-64
2021/04/16 07:15:43;;;;;;;10.00;3.25;;;18.50;63.70;;;;;;4976948;28;19961;-63
2021/04/16 07:18:18;;;;;;;10.18;2.25;;;18.40;63.80;;;;;;4982934;28;20022;-64
2021/04/16 07:20:45;;;;;;;8.63;2.25;;;18.30;64.40;;;;;;4980988;28;20109;-70
2021/04/16 07:23:13;;;;;;;10.70;2.40;;;18.20;64.50;;;;;;4977921;28;20580;-62
2021/04/16 07:25:42;;;;;;;9.52;2.28;;;18.20;64.60;;;;;;4982220;28;20552;-63
2021/04/16 07:28:34;;;;;;;11.02;2.67;;;18.10;64.80;;;;;;4982252;28;20034;-69
2021/04/16 07:31:27;;;;;;;8.35;3.22;;;18.10;64.80;;;;;;4982941;28;20061;-69
2021/04/16 07:33:56;;;;;;;12.70;3.10;;;18.00;65.20;;;;;;4982228;28;20038;-65
2021/04/16 07:36:27;;;;;;;9.80;3.03;;;18.00;65.20;;;;;;4979141;28;20041;-66
2021/04/16 07:39:13;;;;;;;8.27;2.42;;;18.00;65.20;;;;;;4982837;28;20096;-64
2021/04/16 07:41:47;;;;;;;7.13;2.33;;;18.00;65.60;;;;;;4977072;28;20084;-64
2021/04/16 07:44:37;;;;;;;11.18;3.22;;;18.00;65.50;;;;;;4981503;28;20587;-63
2021/04/16 07:47:15;;;;;;;10.65;3.20;;;17.90;65.50;;;;;;4980782;28;20105;-66
2021/04/16 07:49:59;;;;;;;8.65;2.50;;;17.90;65.40;;;;;;4980793;28;20120;-66
2021/04/16 07:52:37;;;;;;;10.68;2.10;;;17.80;65.70;;;;;;4983062;28;20049;-67
2021/04/16 07:55:15;;;;;;;10.75;2.40;;;17.80;65.90;;;;;;4962903;28;20018;-68
2021/04/16 07:57:58;;;;;;;4.45;1.90;;;17.80;65.90;;;;;;4980656;28;20073;-69
2021/04/16 08:00:43;;;;;;;9.90;2.28;;;17.70;66.10;;;;;;4981308;28;20397;-67
2021/04/16 08:03:27;;;;;;;8.48;2.35;;;17.70;66.20;;;;;;4982250;28;20429;-64
2021/04/16 08:05:59;;;;;;;9.13;2.38;;;17.70;66.20;;;;;;4977453;28;20031;-64
2021/04/16 08:08:34;;;;;;;10.68;2.72;;;17.70;66.00;;;;;;4977999;28;20533;-63
2021/04/16 08:11:01;;;;;;;8.43;1.80;;;17.60;66.00;;;;;;4977460;28;20918;-66
2021/04/16 08:13:39;;;;;;;9.88;2.67;;;17.60;66.10;;;;;;4977833;28;20034;-65
2021/04/16 08:16:29;;;;;;;6.60;2.22;;;17.60;66.80;;;;;;4982476;28;20041;-64
2021/04/16 08:19:23;;;;;;;7.47;2.17;;;17.50;66.40;;;;;;4976511;28;20021;-64
2021/04/16 08:21:58;;;;;;;11.07;2.88;;;17.50;66.30;;;;;;4978549;28;20117;-65
2021/04/16 08:24:44;;;;;;;9.43;2.55;;;17.50;66.20;;;;;;4975308;28;20045;-64
2021/04/16 08:27:43;;;;;;;9.27;2.17;;;17.50;66.40;;;;;;4977512;28;20270;-64
2021/04/16 08:30:23;;;;;;;8.57;3.40;;;17.50;66.50;;;;;;4978969;28;20472;-62
2021/04/16 08:32:56;;;;;;;8.18;2.40;;;17.40;66.40;;;;;;4980305;28;20355;-67
2021/04/16 08:35:40;;;;;;;7.88;2.45;;;17.50;66.20;;;;;;4961687;28;20033;-63
2021/04/16 08:38:15;;;;;;;8.05;2.42;;;17.50;66.00;;;;;;4979609;28;20100;-61
2021/04/16 08:40:49;;;;;;;7.10;2.40;;;17.50;66.20;;;;;;4975818;28;20034;-70
2021/04/16 08:43:33;;;;;;;9.20;2.25;;;17.50;66.00;;;;;;4977898;28;20026;-65
2021/04/16 08:46:06;;;;;;;6.32;2.00;;;17.50;66.30;;;;;;4978671;28;20038;-66
2021/04/16 08:48:41;;;;;;;7.13;2.40;;;17.50;66.20;;;;;;4979572;28;20277;-65
2021/04/16 08:51:13;;;;;;;8.93;1.73;;;17.40;66.20;;;;;;4979214;28;20046;-64
2021/04/16 08:53:42;;;;;;;12.82;3.10;;;17.40;66.40;;;;;;4979375;28;20041;-70
2021/04/16 08:56:32;;;;;;;6.10;1.70;;;17.40;66.30;;;;;;4983711;28;20116;-65
2021/04/16 08:59:10;;;;;;;10.77;3.13;;;17.40;66.70;;;;;;4977885;28;20492;-62
2021/04/16 09:01:45;;;;;;;9.43;2.15;;;17.40;66.40;;;;;;4978694;28;20039;-68
2021/04/16 09:04:43;;;;;;;7.32;1.83;;;17.40;66.30;;;;;;4979826;28;20031;-68
2021/04/16 09:07:34;;;;;;;8.75;2.53;;;17.40;66.90;;;;;;4977810;28;20026;-65
2021/04/16 09:10:05;;;;;;;8.20;2.15;;;17.30;66.80;;;;;;4970924;28;20038;-68
2021/04/16 09:12:53;;;;;;;8.90;2.08;;;17.30;67.20;;;;;;4966301;28;20310;-67
2021/04/16 09:15:21;;;;;;;10.18;2.17;;;17.20;67.30;;;;;;4964842;28;20057;-66
2021/04/16 09:17:54;;;;;;;7.68;2.30;;;17.30;67.10;;;;;;4969129;28;20027;-64
2021/04/16 09:20:44;;;;;;;6.88;2.30;;;17.20;67.20;;;;;;4965545;28;20030;-67
2021/04/16 09:23:40;;;;;;;5.68;2.10;;;17.20;67.60;;;;;;4964460;28;20094;-66
2021/04/16 09:26:09;;;;;;;5.15;1.90;;;17.30;67.40;;;;;;4964142;28;20050;-66
2021/04/16 09:28:56;;;;;;;7.50;2.03;;;17.20;67.40;;;;;;4966294;28;20477;-67
2021/04/16 09:31:26;;;;;;;7.45;2.80;;;17.20;67.80;;;;;;4964543;28;20088;-68
2021/04/16 09:34:19;;;;;;;10.65;3.13;;;17.20;67.80;;;;;;4965643;28;20286;-68
2021/04/16 09:36:53;;;;;;;6.88;2.30;;;17.10;68.00;;;;;;4959195;28;20134;-65
2021/04/16 09:39:35;;;;;;;6.70;2.13;;;17.10;68.20;;;;;;4969290;28;20449;-67
2021/04/16 09:42:42;;;;;;;6.70;1.88;;;17.10;67.70;;;;;;4969330;28;20036;-67
2021/04/16 09:45:35;;;;;;;5.50;2.22;;;17.10;68.00;;;;;;4945396;28;20179;-62
2021/04/16 09:48:09;;;;;;;10.55;2.30;;;17.10;68.20;;;;;;4965171;28;20174;-70
2021/04/16 09:50:43;;;;;;;7.20;2.35;;;17.10;68.10;;;;;;4968101;28;20581;-63
2021/04/16 09:53:27;;;;;;;8.50;2.55;;;17.10;68.10;;;;;;4966474;28;20023;-63
2021/04/16 09:55:58;;;;;;;8.50;1.92;;;17.10;69.10;;;;;;4969571;28;20116;-67
2021/04/16 09:58:38;;;;;;;7.88;2.03;;;17.10;69.40;;;;;;4970111;28;20370;-67
2021/04/16 10:01:21;;;;;;;4.28;1.90;;;17.10;68.30;;;;;;4967846;28;20553;-63
2021/04/16 10:03:55;;;;;;;7.72;2.25;;;17.20;69.00;;;;;;4972639;28;20031;-68
2021/04/16 10:06:29;;;;;;;7.70;2.38;;;17.30;72.40;;;;;;4967366;28;20026;-75
2021/04/16 10:09:21;;;;;;;6.90;2.10;;;17.50;72.20;;;;;;4970000;28;20619;-74
2021/04/16 10:12:24;;;;;;;7.15;2.03;;;17.60;71.20;;;;;;4971294;28;20038;-70
2021/04/16 10:14:51;;;;;;;8.23;2.65;;;17.80;69.30;;;;;;4976154;28;20038;-64
2021/04/16 10:17:23;;;;;;;5.28;2.03;;;17.80;68.80;;;;;;4970512;28;20018;-62
2021/04/16 10:20:18;;;;;;;7.95;2.20;;;17.70;68.00;;;;;;4969974;28;20498;-69
2021/04/16 10:22:57;;;;;;;6.28;1.90;;;17.60;68.40;;;;;;4970603;28;20326;-65
2021/04/16 10:34:31;;;;;;;5.90;2.30;;;17.60;69.20;;;;;;4965563;28;20066;-71
2021/04/16 12:38:46;;;;;;;7.90;2.92;;;16.80;74.20;;;;;;4969099;28;20042;-66
2021/04/16 12:41:21;;;;;;;6.60;2.17;;;16.80;73.80;;;;;;4973095;28;20462;-67
2021/04/16 12:43:51;;;;;;;7.00;2.50;;;16.80;74.30;;;;;;4970585;28;20185;-65
2021/04/16 12:46:22;;;;;;;7.78;2.30;;;16.70;73.20;;;;;;4972986;28;20042;-63
2021/04/16 12:48:50;;;;;;;5.45;2.25;;;16.70;73.70;;;;;;4974970;28;20085;-64
2021/04/16 12:51:18;;;;;;;10.23;2.50;;;16.60;73.60;;;;;;4966535;28;20062;-65
2021/04/16 12:53:46;;;;;;;7.78;2.33;;;16.50;72.50;;;;;;4975219;28;20081;-70
2021/04/16 12:56:18;;;;;;;9.77;2.70;;;16.60;74.00;;;;;;4975672;28;20027;-66
2021/04/16 12:58:47;;;;;;;4.65;2.20;;;16.70;73.20;;;;;;4969043;28;20132;-68
2021/04/16 13:01:43;;;;;;;11.93;2.58;;;16.90;72.40;;;;;;4973168;28;20030;-67
2021/04/16 13:04:11;;;;;;;6.82;2.65;;;17.00;71.30;;;;;;4968426;28;20348;-66
2021/04/16 13:06:43;;;;;;;6.07;1.95;;;17.00;71.90;;;;;;4974084;28;20125;-69
2021/04/16 13:09:13;;;;;;;4.68;1.98;;;16.90;72.30;;;;;;4971306;28;20039;-74
2021/04/16 13:11:40;;;;;;;8.73;2.20;;;16.80;72.10;;;;;;4962748;28;20406;-70
2021/04/16 13:14:09;;;;;;;9.20;2.40;;;16.90;71.80;;;;;;4972185;28;20446;-67
2021/04/16 13:16:38;;;;;;;8.63;2.63;;;16.90;73.10;;;;;;4972281;28;20034;-67
2021/04/16 13:19:22;;;;;;;9.52;2.80;;;17.00;71.90;;;;;;4970665;28;20026;-75
2021/04/16 13:21:50;;;;;;;6.47;2.63;;;17.10;70.60;;;;;;4971696;28;20445;-64
2021/04/16 13:24:18;;;;;;;5.63;1.92;;;17.10;70.90;;;;;;4970699;28;20125;-75
2021/04/16 13:26:46;;;;;;;7.85;2.40;;;16.90;71.00;;;;;;4973337;28;20385;-66
2021/04/16 13:29:13;;;;;;;11.75;2.70;;;16.90;71.10;;;;;;4974070;28;20081;-71
2021/04/16 13:31:41;;;;;;;8.88;2.65;;;16.80;70.20;;;;;;4966428;28;20050;-68
2021/04/16 13:34:10;;;;;;;10.43;2.90;;;16.50;71.30;;;;;;4973473;28;20038;-67
2021/04/16 13:36:38;;;;;;;8.23;2.78;;;16.30;71.90;;;;;;4972266;28;20149;-65
2021/04/16 13:39:08;;;;;;;8.85;2.78;;;16.10;73.10;;;;;;4975058;28;20027;-70
2021/04/16 13:41:36;;;;;;;10.02;2.42;;;15.90;74.30;;;;;;4972758;28;20599;-72
2021/04/16 13:44:04;;;;;;;12.95;3.05;;;15.70;74.20;;;;;;4966176;28;20122;-64
2021/04/16 13:46:35;;;;;;;9.45;2.42;;;15.60;75.10;;;;;;4974090;28;20050;-64
2021/04/16 13:49:05;;;;;;;6.57;1.80;;;15.50;75.30;;;;;;4968028;28;20096;-64
2021/04/16 13:51:34;;;;;;;9.48;2.40;;;15.40;75.60;;;;;;4973205;28;20374;-64
2021/04/16 13:54:04;;;;;;;10.50;3.25;;;15.30;75.80;;;;;;4973351;28;20022;-63
2021/04/16 13:56:32;;;;;;;6.57;2.35;;;15.30;76.10;;;;;;4976235;28;20528;-63
2021/04/16 13:58:59;;;;;;;6.90;2.60;;;15.20;76.80;;;;;;4971583;28;20481;-71
2021/04/16 14:01:28;;;;;;;7.38;2.92;;;15.10;77.10;;;;;;4971589;28;20066;-71
2021/04/16 14:04:05;;;;;;;10.02;2.65;;;15.00;77.40;;;;;;4972194;28;20091;-63
2021/04/16 14:06:38;;;;;;;9.07;2.47;;;15.00;77.50;;;;;;4969473;28;20390;-63
2021/04/16 14:09:19;;;;;;;9.05;3.33;;;15.00;77.90;;;;;;4969161;28;20102;-70
2021/04/16 14:11:47;;;;;;;9.75;3.10;;;14.90;78.20;;;;;;4975745;28;20041;-70
2021/04/16 14:14:19;;;;;;;11.40;2.33;;;14.80;78.80;;;;;;4975705;28;20026;-64
2021/04/16 14:16:48;;;;;;;7.93;2.80;;;14.80;78.60;;;;;;4971728;28;20035;-64
2021/04/16 14:19:20;;;;;;;9.85;2.80;;;14.80;78.60;;;;;;4968635;28;20394;-63
2021/04/16 14:21:51;;;;;;;6.30;2.78;;;14.80;78.70;;;;;;4965275;28;20066;-71
2021/04/16 14:24:18;;;;;;;8.52;2.63;;;14.70;79.10;;;;;;4969222;28;20026;-65
2021/04/16 14:26:48;;;;;;;12.93;3.60;;;14.70;79.30;;;;;;4966210;28;20476;-65
2021/04/16 14:29:16;;;;;;;9.25;2.83;;;14.70;79.70;;;;;;4967762;28;20031;-64
2021/04/16 14:31:44;;;;;;;7.20;3.13;;;14.70;79.50;;;;;;4966610;28;20045;-70
2021/04/16 14:34:16;;;;;;;9.65;3.22;;;14.80;78.60;;;;;;4964607;28;20115;-70
2021/04/16 14:36:44;;;;;;;11.43;2.75;;;14.90;78.20;;;;;;4968364;28;20405;-70
2021/04/16 14:39:12;;;;;;;8.50;2.50;;;14.90;78.30;;;;;;4965941;28;20517;-65
2021/04/16 14:41:40;;;;;;;10.07;3.03;;;14.90;78.40;;;;;;4965715;28;20503;-70
2021/04/16 14:44:20;;;;;;;9.18;2.95;;;14.90;78.00;;;;;;4963449;28;20054;-70
2021/04/16 14:46:52;;;;;;;7.55;2.50;;;14.90;78.20;;;;;;5025006;23;20060;-70
2021/04/16 14:49:27;;;;;;;9.50;3.10;;;14.90;78.40;;;;;;5067045;28;20032;-64
2021/04/16 14:52:00;;;;;;;11.65;2.95;;;14.90;78.80;;;;;;5065419;28;20024;-70
2021/04/16 14:54:55;;;;;;;7.25;3.17;;;14.90;78.80;;;;;;5063182;28;20021;-71
2021/04/16 14:57:35;;;;;;;8.52;2.83;;;14.90;78.40;;;;;;5065745;28;20048;-64
2021/04/16 15:00:06;;;;;;;10.25;3.33;;;15.00;78.10;;;;;;5068304;28;20021;-63
2021/04/16 15:02:34;;;;;;;12.90;2.75;;;15.00;77.90;;;;;;5066061;28;20032;-64
2021/04/16 15:05:01;;;;;;;9.93;2.60;;;15.00;77.50;;;;;;5068641;28;20025;-65
2021/04/16 15:07:36;;;;;;;11.70;3.28;;;15.10;77.20;;;;;;5060131;28;20021;-64
2021/04/16 15:10:08;;;;;;;10.27;3.55;;;15.10;77.30;;;;;;5067664;28;20379;-64
2021/04/16 15:12:41;;;;;;;7.90;3.27;;;15.10;77.30;;;;;;5060054;28;20037;-70
2021/04/16 15:15:15;;;;;;;10.32;2.58;;;15.10;77.10;;;;;;5072823;28;20036;-64
2021/04/16 15:17:42;;;;;;;10.00;2.78;;;15.10;77.60;;;;;;5071372;28;20025;-64
2021/04/16 15:20:10;;;;;;;7.07;2.67;;;15.20;77.10;;;;;;5067325;28;20107;-64